Time;durP1;ratioP1;P1;durP2;ratioP2;P2;SDS_P1;SDS_P2;PMS_P1;PMS_P2;Temp;Humidity;BMP_temperature;BMP_pressure;BME280_temperature;BME280_humidity;BME280_pressure;Samples;Min_cycle;Max_cycle;Signal;HPM_P1;HPM_P2
2022/09/21 00:02:20;;;;;;;4.35;1.00;;;;;;;;;;4995827;28;20436;-71
2022/09/21 00:04:46;;;;;;;3.65;0.80;;;;;;;;;;4997082;28;20270;-71
2022/09/21 00:07:11;;;;;;;5.10;1.20;;;;;;;;;;4996664;28;20243;-70
2022/09/21 00:09:37;;;;;;;6.75;1.33;;;;;;;;;;4995257;28;20220;-71
2022/09/21 00:12:02;;;;;;;5.00;0.82;;;;;;;;;;4990247;28;20216;-71
2022/09/21 00:14:28;;;;;;;10.65;1.92;;;;;;;;;;4994208;28;20205;-71
2022/09/21 00:16:53;;;;;;;3.25;0.70;;;;;;;;;;4993980;28;20212;-71
2022/09/21 00:19:19;;;;;;;6.20;0.93;;;;;;;;;;5000197;28;20209;-71
2022/09/21 00:21:44;;;;;;;6.25;1.20;;;;;;;;;;5000135;28;20220;-71
2022/09/21 00:24:09;;;;;;;6.38;0.90;;;;;;;;;;5012075;28;20223;-70
2022/09/21 00:26:35;;;;;;;6.57;1.10;;;;;;;;;;5036761;28;20327;-71
2022/09/21 00:29:01;;;;;;;4.35;0.90;;;;;;;;;;5010118;28;20258;-71
2022/09/21 00:31:26;;;;;;;5.15;1.40;;;;;;;;;;5009661;28;20471;-71
2022/09/21 00:33:51;;;;;;;3.10;0.77;;;;;;;;;;5010596;28;20234;-71
2022/09/21 00:36:17;;;;;;;6.55;1.10;;;;;;;;;;5010269;28;20235;-70
2022/09/21 00:38:43;;;;;;;4.32;0.80;;;;;;;;;;5010130;28;20211;-71
2022/09/21 00:41:08;;;;;;;4.50;0.95;;;;;;;;;;5009736;28;20247;-70
2022/09/21 00:43:34;;;;;;;9.15;1.00;;;;;;;;;;5010595;28;20240;-71
2022/09/21 00:46:04;;;;;;;3.15;0.80;;;;;;;;;;5009986;28;20205;-71
2022/09/21 00:48:30;;;;;;;5.07;1.60;;;;;;;;;;5010886;28;20216;-71
2022/09/21 00:50:56;;;;;;;4.07;0.90;;;;;;;;;;5010116;28;20323;-71
2022/09/21 00:53:21;;;;;;;7.22;1.10;;;;;;;;;;5046763;28;20250;-70
2022/09/21 00:55:48;;;;;;;2.97;0.80;;;;;;;;;;5050378;28;20677;-71
2022/09/21 00:58:16;;;;;;;6.03;1.02;;;;;;;;;;5030920;28;20223;-70
2022/09/21 01:00:42;;;;;;;5.20;1.05;;;;;;;;;;5028083;28;20671;-71
2022/09/21 01:03:07;;;;;;;5.15;0.95;;;;;;;;;;5029395;28;20223;-70
2022/09/21 01:05:32;;;;;;;4.10;1.08;;;;;;;;;;5027990;28;20208;-71
2022/09/21 01:07:58;;;;;;;6.25;1.30;;;;;;;;;;5029349;28;20863;-71
2022/09/21 01:10:26;;;;;;;6.45;1.00;;;;;;;;;;5027378;28;20739;-71
2022/09/21 01:13:05;;;;;;;4.43;0.80;;;;;;;;;;5027498;28;20202;-70
2022/09/21 01:15:36;;;;;;;4.97;1.02;;;;;;;;;;5029303;28;20234;-70
2022/09/21 01:18:10;;;;;;;5.53;0.85;;;;;;;;;;5028881;28;20207;-70
2022/09/21 01:20:36;;;;;;;7.32;1.10;;;;;;;;;;5027358;28;20266;-70
2022/09/21 01:23:06;;;;;;;5.00;0.73;;;;;;;;;;5024177;28;20213;-69
2022/09/21 01:25:36;;;;;;;3.92;0.93;;;;;;;;;;5047364;28;20260;-69
2022/09/21 01:28:11;;;;;;;6.60;1.00;;;;;;;;;;5046203;28;20219;-70
2022/09/21 01:30:36;;;;;;;5.20;1.10;;;;;;;;;;5043230;28;20215;-70
2022/09/21 01:33:04;;;;;;;4.45;0.85;;;;;;;;;;5013156;28;20205;-70
2022/09/21 01:35:32;;;;;;;4.13;0.80;;;;;;;;;;5014859;28;20212;-71
2022/09/21 01:37:59;;;;;;;4.22;0.80;;;;;;;;;;5013610;28;20209;-71
2022/09/21 01:40:27;;;;;;;6.90;1.10;;;;;;;;;;5013105;28;20559;-70
2022/09/21 01:42:53;;;;;;;4.68;1.00;;;;;;;;;;5013856;28;20224;-70
2022/09/21 01:45:20;;;;;;;8.95;0.98;;;;;;;;;;5012962;28;20223;-70
2022/09/21 01:47:45;;;;;;;6.20;1.20;;;;;;;;;;5012561;28;20228;-70
2022/09/21 01:50:11;;;;;;;4.68;0.80;;;;;;;;;;5012948;28;20208;-70
2022/09/21 01:52:43;;;;;;;3.90;0.77;;;;;;;;;;5038822;28;20294;-70
2022/09/21 01:55:13;;;;;;;3.72;0.90;;;;;;;;;;5051747;28;20211;-70
2022/09/21 01:57:41;;;;;;;5.47;1.00;;;;;;;;;;5041713;28;20294;-70
2022/09/21 02:00:07;;;;;;;8.07;1.10;;;;;;;;;;5032575;28;20219;-70
2022/09/21 02:02:36;;;;;;;2.85;0.85;;;;;;;;;;5033287;28;20681;-71
2022/09/21 02:05:02;;;;;;;6.90;1.08;;;;;;;;;;5032380;28;20218;-70
2022/09/21 02:07:27;;;;;;;5.35;0.88;;;;;;;;;;5032481;28;20219;-71
2022/09/21 02:09:54;;;;;;;4.97;0.80;;;;;;;;;;5032072;28;20219;-71
2022/09/21 02:12:20;;;;;;;8.02;1.20;;;;;;;;;;5033514;28;20265;-71
2022/09/21 02:14:46;;;;;;;6.45;0.80;;;;;;;;;;5033766;28;20302;-70
2022/09/21 02:17:11;;;;;;;3.80;1.08;;;;;;;;;;5032545;28;20215;-70
2022/09/21 02:19:50;;;;;;;7.00;0.90;;;;;;;;;;5033808;28;20218;-71
2022/09/21 02:22:18;;;;;;;3.70;0.90;;;;;;;;;;5032049;28;20670;-70
2022/09/21 02:24:48;;;;;;;5.20;1.10;;;;;;;;;;5016663;28;20208;-71
2022/09/21 02:27:18;;;;;;;8.25;1.13;;;;;;;;;;5019074;28;20232;-70
2022/09/21 02:29:47;;;;;;;6.22;1.10;;;;;;;;;;5024428;28;20758;-71
2022/09/21 02:32:22;;;;;;;6.07;1.10;;;;;;;;;;5021948;28;20609;-70
2022/09/21 02:34:49;;;;;;;5.43;1.00;;;;;;;;;;5013810;28;21341;-70
2022/09/21 02:37:21;;;;;;;7.03;0.95;;;;;;;;;;5000405;28;20233;-72
2022/09/21 02:39:52;;;;;;;3.83;0.90;;;;;;;;;;5010057;28;20216;-70
2022/09/21 02:42:20;;;;;;;3.25;1.05;;;;;;;;;;5017419;28;20237;-70
2022/09/21 02:44:47;;;;;;;4.75;0.98;;;;;;;;;;5016738;28;20737;-70
2022/09/21 02:47:14;;;;;;;5.70;1.02;;;;;;;;;;5016808;28;20223;-70
2022/09/21 02:49:41;;;;;;;4.82;1.30;;;;;;;;;;5032244;28;20331;-70
2022/09/21 02:52:09;;;;;;;4.65;1.10;;;;;;;;;;5008111;28;20231;-70
2022/09/21 02:54:34;;;;;;;5.30;1.05;;;;;;;;;;5032563;28;20222;-71
2022/09/21 02:56:59;;;;;;;2.47;0.80;;;;;;;;;;5022757;28;20213;-70
2022/09/21 02:59:25;;;;;;;7.47;1.63;;;;;;;;;;4989219;28;20810;-70
2022/09/21 03:01:50;;;;;;;6.13;0.90;;;;;;;;;;4990554;28;20221;-70
2022/09/21 03:04:16;;;;;;;3.65;0.90;;;;;;;;;;4993676;28;20411;-70
2022/09/21 03:06:41;;;;;;;4.22;0.90;;;;;;;;;;4996175;28;20201;-70
2022/09/21 03:09:07;;;;;;;3.35;0.93;;;;;;;;;;4996416;28;20216;-70
2022/09/21 03:11:34;;;;;;;3.67;0.88;;;;;;;;;;5016079;28;20247;-70
2022/09/21 03:14:01;;;;;;;2.80;1.00;;;;;;;;;;5015742;28;20211;-70
2022/09/21 03:16:27;;;;;;;4.20;0.90;;;;;;;;;;5016809;28;20212;-70
2022/09/21 03:18:53;;;;;;;4.63;0.98;;;;;;;;;;4995951;28;20216;-70
2022/09/21 03:21:18;;;;;;;4.93;1.20;;;;;;;;;;4989543;28;20559;-70
2022/09/21 03:23:43;;;;;;;5.18;1.08;;;;;;;;;;4990275;28;20303;-70
2022/09/21 03:26:09;;;;;;;7.90;0.90;;;;;;;;;;4991051;28;20593;-70
2022/09/21 03:28:34;;;;;;;6.05;1.30;;;;;;;;;;4996445;28;20216;-70
2022/09/21 03:30:59;;;;;;;4.90;1.00;;;;;;;;;;5015928;28;20215;-70
2022/09/21 03:33:25;;;;;;;5.75;1.30;;;;;;;;;;5003583;28;20212;-70
2022/09/21 03:35:50;;;;;;;5.82;1.20;;;;;;;;;;4996290;28;20837;-70
2022/09/21 03:38:16;;;;;;;3.97;0.88;;;;;;;;;;4996180;28;20217;-69
2022/09/21 03:40:47;;;;;;;10.10;1.10;;;;;;;;;;4995887;28;20625;-70
2022/09/21 03:43:13;;;;;;;6.30;1.00;;;;;;;;;;5009875;28;20243;-69
2022/09/21 03:45:39;;;;;;;9.98;1.40;;;;;;;;;;5009080;28;20265;-70
2022/09/21 03:48:05;;;;;;;4.00;1.10;;;;;;;;;;5008399;28;20614;-70
2022/09/21 03:50:30;;;;;;;5.32;0.95;;;;;;;;;;5029710;28;20210;-70
2022/09/21 03:52:56;;;;;;;3.95;0.98;;;;;;;;;;5001826;28;20208;-70
2022/09/21 03:55:21;;;;;;;5.13;0.88;;;;;;;;;;4994789;28;20346;-70
2022/09/21 03:57:46;;;;;;;7.60;1.00;;;;;;;;;;4996778;28;20307;-70
2022/09/21 04:00:12;;;;;;;3.60;1.25;;;;;;;;;;4995781;28;20219;-70
2022/09/21 04:02:39;;;;;;;4.97;1.02;;;;;;;;;;4996174;28;20220;-70
2022/09/21 04:05:05;;;;;;;4.93;0.90;;;;;;;;;;5011983;28;20414;-69
2022/09/21 04:07:33;;;;;;;4.47;0.98;;;;;;;;;;5009085;28;20550;-70
2022/09/21 04:09:59;;;;;;;5.18;0.95;;;;;;;;;;5008198;28;20207;-70
2022/09/21 04:12:24;;;;;;;7.38;1.10;;;;;;;;;;5012674;28;20274;-70
2022/09/21 04:14:49;;;;;;;5.10;0.90;;;;;;;;;;5015786;28;20341;-70
2022/09/21 04:17:15;;;;;;;5.78;0.80;;;;;;;;;;5009522;28;20861;-69
2022/09/21 04:19:40;;;;;;;5.50;0.90;;;;;;;;;;4996470;28;20429;-70
2022/09/21 04:22:05;;;;;;;3.97;1.23;;;;;;;;;;4997022;28;20450;-69
2022/09/21 04:24:31;;;;;;;5.90;1.20;;;;;;;;;;4996067;28;20224;-70
2022/09/21 04:26:56;;;;;;;4.85;1.00;;;;;;;;;;4995541;28;20774;-70
2022/09/21 04:29:21;;;;;;;4.60;0.90;;;;;;;;;;4989382;28;20205;-70
2022/09/21 04:31:46;;;;;;;4.35;0.80;;;;;;;;;;4989154;28;20212;-70
2022/09/21 04:34:12;;;;;;;6.00;1.17;;;;;;;;;;4990527;28;20579;-70
2022/09/21 04:36:37;;;;;;;4.40;0.90;;;;;;;;;;4996892;28;20220;-70
2022/09/21 04:39:03;;;;;;;9.63;1.38;;;;;;;;;;5002104;28;20212;-69
2022/09/21 04:41:28;;;;;;;4.53;0.90;;;;;;;;;;5002175;28;20278;-70
2022/09/21 04:43:54;;;;;;;5.15;1.10;;;;;;;;;;5009803;28;20228;-69
2022/09/21 04:46:19;;;;;;;7.90;1.27;;;;;;;;;;5010614;28;20415;-68
2022/09/21 04:48:45;;;;;;;4.90;1.20;;;;;;;;;;5011675;28;20228;-67
2022/09/21 04:51:10;;;;;;;5.03;1.05;;;;;;;;;;5012755;28;20219;-69
2022/09/21 04:53:36;;;;;;;6.90;1.27;;;;;;;;;;5048963;28;20487;-69
2022/09/21 04:56:02;;;;;;;3.95;0.90;;;;;;;;;;5028348;28;20216;-68
2022/09/21 04:58:28;;;;;;;7.32;1.00;;;;;;;;;;5030921;28;20219;-68
2022/09/21 05:00:54;;;;;;;6.25;1.20;;;;;;;;;;5028912;28;20226;-69
2022/09/21 05:03:20;;;;;;;2.83;0.80;;;;;;;;;;5023915;28;20216;-69
2022/09/21 05:05:46;;;;;;;6.72;1.10;;;;;;;;;;5023797;28;20235;-70
2022/09/21 05:08:11;;;;;;;5.90;1.20;;;;;;;;;;5023925;28;20263;-72
2022/09/21 05:10:37;;;;;;;4.38;1.00;;;;;;;;;;5023670;28;20240;-67
2022/09/21 05:13:02;;;;;;;3.95;0.80;;;;;;;;;;5023792;28;20215;-67
2022/09/21 05:15:27;;;;;;;2.40;0.82;;;;;;;;;;5025149;28;20204;-67
2022/09/21 05:17:52;;;;;;;5.00;1.05;;;;;;;;;;5024994;28;20200;-66
2022/09/21 05:20:18;;;;;;;3.88;0.85;;;;;;;;;;5024442;28;20239;-66
2022/09/21 05:22:43;;;;;;;5.18;1.00;;;;;;;;;;5006046;28;20382;-66
2022/09/21 05:25:09;;;;;;;3.92;0.77;;;;;;;;;;5019202;28;20220;-69
2022/09/21 05:27:34;;;;;;;4.43;1.10;;;;;;;;;;5018572;28;20228;-69
2022/09/21 05:29:59;;;;;;;4.77;1.07;;;;;;;;;;5019693;28;20440;-69
2022/09/21 05:32:37;;;;;;;8.23;1.20;;;;;;;;;;5014662;28;20311;-68
2022/09/21 05:35:08;;;;;;;5.53;1.10;;;;;;;;;;5009783;28;20219;-68
2022/09/21 05:37:57;;;;;;;9.27;1.25;;;;;;;;;;5008415;28;20792;-67
2022/09/21 05:40:22;;;;;;;8.10;1.70;;;;;;;;;;5009167;28;20215;-67
2022/09/21 05:42:48;;;;;;;6.50;1.08;;;;;;;;;;5013124;28;20225;-66
2022/09/21 05:45:15;;;;;;;6.95;1.10;;;;;;;;;;5008937;28;20767;-67
2022/09/21 05:47:49;;;;;;;11.13;1.30;;;;;;;;;;5022879;28;20266;-66
2022/09/21 05:50:28;;;;;;;6.93;1.20;;;;;;;;;;5025672;28;20261;-66
2022/09/21 05:53:12;;;;;;;10.50;3.65;;;;;;;;;;5023564;28;20200;-66
2022/09/21 05:55:47;;;;;;;10.43;4.25;;;;;;;;;;4999991;28;20536;-65
2022/09/21 05:58:19;;;;;;;9.82;2.60;;;;;;;;;;5014811;28;20684;-66
2022/09/21 06:00:56;;;;;;;14.07;3.17;;;;;;;;;;4998746;28;20830;-66
2022/09/21 06:03:27;;;;;;;6.25;1.90;;;;;;;;;;5007509;28;20469;-67
2022/09/21 06:05:53;;;;;;;8.73;1.50;;;;;;;;;;5006433;28;20216;-68
2022/09/21 06:08:18;;;;;;;8.57;1.70;;;;;;;;;;5021443;28;20290;-68
2022/09/21 06:10:44;;;;;;;7.82;1.50;;;;;;;;;;5007214;28;20692;-66
2022/09/21 06:13:10;;;;;;;10.07;1.40;;;;;;;;;;5022160;28;20298;-68
2022/09/21 06:15:37;;;;;;;10.90;1.50;;;;;;;;;;5022015;28;20214;-67
2022/09/21 06:18:04;;;;;;;11.93;2.05;;;;;;;;;;5003024;28;20374;-67
2022/09/21 06:20:30;;;;;;;17.88;2.70;;;;;;;;;;4998048;28;20215;-67
2022/09/21 06:23:00;;;;;;;11.65;2.28;;;;;;;;;;5002728;28;20244;-67
2022/09/21 06:25:25;;;;;;;15.60;2.00;;;;;;;;;;5003468;28;20217;-67
2022/09/21 06:27:51;;;;;;;8.77;1.90;;;;;;;;;;5008109;28;20232;-68
2022/09/21 06:30:16;;;;;;;7.05;1.50;;;;;;;;;;5022191;28;20208;-68
2022/09/21 06:32:41;;;;;;;4.95;1.50;;;;;;;;;;5022510;28;20538;-67
2022/09/21 06:35:07;;;;;;;10.60;1.90;;;;;;;;;;5008344;28;20262;-74
2022/09/21 06:37:32;;;;;;;8.90;2.00;;;;;;;;;;5017512;28;20216;-66
2022/09/21 06:39:58;;;;;;;9.73;2.30;;;;;;;;;;4999392;28;20220;-66
2022/09/21 06:42:23;;;;;;;12.38;4.10;;;;;;;;;;4996280;28;20212;-66
2022/09/21 06:44:49;;;;;;;17.65;2.10;;;;;;;;;;4996544;28;20224;-66
2022/09/21 06:47:14;;;;;;;6.83;1.90;;;;;;;;;;4999965;28;20861;-66
2022/09/21 06:49:39;;;;;;;11.68;2.28;;;;;;;;;;5003297;28;20466;-67
2022/09/21 06:52:05;;;;;;;8.02;2.25;;;;;;;;;;5001851;28;20259;-67
2022/09/21 06:54:31;;;;;;;4.80;2.15;;;;;;;;;;5026405;28;20220;-67
2022/09/21 06:56:56;;;;;;;5.47;2.10;;;;;;;;;;5003115;28;20213;-67
2022/09/21 06:59:21;;;;;;;7.35;2.58;;;;;;;;;;5019686;28;20208;-68
2022/09/21 07:01:47;;;;;;;8.45;2.50;;;;;;;;;;5017838;28;20731;-69
2022/09/21 07:04:12;;;;;;;7.15;2.10;;;;;;;;;;4995114;28;20888;-67
2022/09/21 07:06:38;;;;;;;6.70;1.95;;;;;;;;;;4995321;28;20299;-68
2022/09/21 07:09:03;;;;;;;6.25;2.10;;;;;;;;;;5014921;28;20211;-67
2022/09/21 07:11:28;;;;;;;8.25;2.38;;;;;;;;;;5016502;28;20217;-67
2022/09/21 07:13:54;;;;;;;4.15;2.10;;;;;;;;;;5003408;28;20218;-68
2022/09/21 07:16:20;;;;;;;6.90;2.13;;;;;;;;;;5002268;28;20787;-68
2022/09/21 07:18:45;;;;;;;5.15;2.63;;;;;;;;;;5001913;28;20208;-68
2022/09/21 07:21:11;;;;;;;6.72;3.10;;;;;;;;;;5001728;28;20220;-68
2022/09/21 07:23:36;;;;;;;8.55;3.83;;;;;;;;;;5002381;28;20215;-69
2022/09/21 07:26:02;;;;;;;8.40;4.45;;;;;;;;;;5013238;28;20222;-69
2022/09/21 07:28:28;;;;;;;7.88;4.00;;;;;;;;;;5014161;28;20219;-68
2022/09/21 07:30:53;;;;;;;7.97;4.07;;;;;;;;;;5015400;28;20604;-70
2022/09/21 07:33:18;;;;;;;7.18;3.47;;;;;;;;;;5019388;28;20302;-69
2022/09/21 07:35:50;;;;;;;5.80;3.13;;;;;;;;;;5020997;28;20302;-69
2022/09/21 07:38:16;;;;;;;9.93;3.70;;;;;;;;;;5010168;28;20228;-69
2022/09/21 07:40:41;;;;;;;8.32;3.47;;;;;;;;;;5001821;28;20516;-69
2022/09/21 07:43:06;;;;;;;7.25;3.15;;;;;;;;;;5001593;28;20274;-68
2022/09/21 07:45:32;;;;;;;9.85;3.50;;;;;;;;;;5001773;28;20233;-70
2022/09/21 07:48:02;;;;;;;7.28;2.90;;;;;;;;;;5011998;28;20826;-68
2022/09/21 07:50:27;;;;;;;7.38;3.00;;;;;;;;;;5013658;28;20218;-69
2022/09/21 07:52:52;;;;;;;8.00;3.13;;;;;;;;;;5000401;28;20216;-68
2022/09/21 07:55:17;;;;;;;7.72;2.75;;;;;;;;;;5000035;28;20766;-66
2022/09/21 08:00:31;;;;;;;8.07;2.83;;;;;;;;;;5000644;28;20359;-69
2022/09/21 08:02:56;;;;;;;7.03;2.85;;;;;;;;;;5008704;28;20204;-68
2022/09/21 08:05:22;;;;;;;6.95;2.80;;;;;;;;;;5000820;28;20223;-69
2022/09/21 08:07:47;;;;;;;9.73;2.92;;;;;;;;;;5013894;28;20576;-68
2022/09/21 08:10:12;;;;;;;5.03;2.22;;;;;;;;;;5003477;28;20248;-68
2022/09/21 08:12:38;;;;;;;10.00;2.42;;;;;;;;;;4995708;28;20691;-69
2022/09/21 08:15:03;;;;;;;9.20;2.65;;;;;;;;;;4996410;28;20204;-68
2022/09/21 08:17:29;;;;;;;8.32;2.30;;;;;;;;;;4999951;28;20220;-68
2022/09/21 08:19:54;;;;;;;7.40;2.50;;;;;;;;;;5001727;28;20200;-68
2022/09/21 08:22:24;;;;;;;6.88;1.95;;;;;;;;;;5002239;28;20216;-67
2022/09/21 08:24:51;;;;;;;8.70;2.10;;;;;;;;;;5006539;28;20785;-69
2022/09/21 08:27:17;;;;;;;5.57;2.00;;;;;;;;;;5007287;28;20316;-68
2022/09/21 08:29:42;;;;;;;4.85;1.92;;;;;;;;;;5000894;28;20295;-68
2022/09/21 08:32:08;;;;;;;5.93;2.22;;;;;;;;;;5000249;28;20263;-69
2022/09/21 08:34:33;;;;;;;8.70;2.22;;;;;;;;;;4997190;28;20290;-68
2022/09/21 08:36:58;;;;;;;7.28;1.98;;;;;;;;;;5003603;28;20204;-72
2022/09/21 08:39:24;;;;;;;8.15;2.40;;;;;;;;;;4999730;28;20254;-71
2022/09/21 08:41:53;;;;;;;8.30;1.90;;;;;;;;;;5005098;28;20311;-71
2022/09/21 08:44:22;;;;;;;6.97;2.30;;;;;;;;;;5003772;28;20262;-70
2022/09/21 08:47:02;;;;;;;7.85;2.45;;;;;;;;;;5025837;28;20226;-70
2022/09/21 08:49:27;;;;;;;6.30;2.10;;;;;;;;;;5029476;28;20224;-70
2022/09/21 08:51:54;;;;;;;9.57;2.65;;;;;;;;;;5007361;28;20699;-71
2022/09/21 08:54:22;;;;;;;7.70;2.20;;;;;;;;;;5020001;28;20227;-70
2022/09/21 08:56:47;;;;;;;7.03;2.47;;;;;;;;;;5014640;28;20211;-69
2022/09/21 08:59:14;;;;;;;7.40;2.30;;;;;;;;;;4997875;28;20209;-69
2022/09/21 09:01:41;;;;;;;7.93;2.38;;;;;;;;;;5001220;28;20579;-70
2022/09/21 09:04:22;;;;;;;8.63;2.25;;;;;;;;;;5002966;28;20212;-69
2022/09/21 09:06:51;;;;;;;8.00;2.33;;;;;;;;;;5004860;28;20266;-69
2022/09/21 09:09:35;;;;;;;4.55;1.83;;;;;;;;;;5025361;28;20232;-68
2022/09/21 09:12:06;;;;;;;8.25;2.50;;;;;;;;;;5003051;28;20596;-72
2022/09/21 09:14:34;;;;;;;7.22;2.38;;;;;;;;;;5022760;28;20240;-69
2022/09/21 09:17:18;;;;;;;6.50;2.00;;;;;;;;;;5005463;28;20204;-69
2022/09/21 09:19:47;;;;;;;9.50;2.10;;;;;;;;;;5011326;28;20317;-70
2022/09/21 09:22:14;;;;;;;6.65;1.85;;;;;;;;;;5002486;28;20215;-70
2022/09/21 09:24:41;;;;;;;7.75;1.73;;;;;;;;;;5027255;28;20623;-70
2022/09/21 09:27:13;;;;;;;12.88;2.10;;;;;;;;;;5017579;28;20209;-70
2022/09/21 09:29:45;;;;;;;7.28;1.85;;;;;;;;;;5029475;28;20292;-70
2022/09/21 09:32:12;;;;;;;9.43;2.10;;;;;;;;;;5022181;28;20255;-70
2022/09/21 09:34:38;;;;;;;6.25;1.50;;;;;;;;;;5029520;28;20292;-70
2022/09/21 09:37:13;;;;;;;7.82;1.58;;;;;;;;;;5006982;28;20210;-70
2022/09/21 09:39:38;;;;;;;8.15;1.77;;;;;;;;;;5027981;28;20266;-70
2022/09/21 09:42:08;;;;;;;7.82;1.42;;;;;;;;;;4997034;28;20874;-70
2022/09/21 09:44:49;;;;;;;7.93;1.60;;;;;;;;;;5020070;28;20558;-69
2022/09/21 09:47:14;;;;;;;5.13;1.20;;;;;;;;;;4998046;28;20293;-70
2022/09/21 09:49:52;;;;;;;7.97;1.33;;;;;;;;;;5003813;28;20636;-70
2022/09/21 09:52:18;;;;;;;7.05;1.33;;;;;;;;;;5028751;28;20275;-70
2022/09/21 09:54:43;;;;;;;6.18;1.02;;;;;;;;;;5036654;28;20573;-70
2022/09/21 09:57:08;;;;;;;8.77;1.40;;;;;;;;;;5028034;28;20207;-70
2022/09/21 09:59:35;;;;;;;8.65;1.60;;;;;;;;;;5010690;28;20244;-70
2022/09/21 10:02:17;;;;;;;6.57;1.33;;;;;;;;;;5013230;28;20216;-69
2022/09/21 10:04:53;;;;;;;6.82;1.50;;;;;;;;;;5009479;28;20208;-70
2022/09/21 10:07:18;;;;;;;6.03;1.58;;;;;;;;;;5040385;28;20216;-70
2022/09/21 10:09:44;;;;;;;8.40;1.73;;;;;;;;;;5028184;28;20544;-70
2022/09/21 10:12:17;;;;;;;6.15;1.15;;;;;;;;;;5027788;28;20535;-69
2022/09/21 10:14:47;;;;;;;5.72;1.00;;;;;;;;;;5026240;28;20601;-70
2022/09/21 10:17:12;;;;;;;7.70;1.20;;;;;;;;;;5027476;28;20222;-68
2022/09/21 10:19:37;;;;;;;4.57;0.90;;;;;;;;;;5026760;28;20691;-69
2022/09/21 10:22:03;;;;;;;7.95;1.38;;;;;;;;;;5013185;28;20398;-70
2022/09/21 10:24:29;;;;;;;8.15;1.40;;;;;;;;;;5006952;28;20681;-68
2022/09/21 10:26:56;;;;;;;5.68;1.05;;;;;;;;;;5008115;28;20208;-69
2022/09/21 10:29:21;;;;;;;4.25;1.30;;;;;;;;;;5005845;28;20235;-69
2022/09/21 10:31:54;;;;;;;6.70;1.13;;;;;;;;;;5007771;28;20204;-69
2022/09/21 10:34:20;;;;;;;4.72;1.10;;;;;;;;;;5006506;28;20359;-69
2022/09/21 10:36:51;;;;;;;4.85;1.20;;;;;;;;;;5007380;28;20292;-69
2022/09/21 10:39:22;;;;;;;4.95;0.90;;;;;;;;;;5006805;28;20501;-69
2022/09/21 10:41:48;;;;;;;5.90;1.10;;;;;;;;;;5008243;28;20692;-70
2022/09/21 10:44:14;;;;;;;4.78;1.00;;;;;;;;;;5006546;28;20228;-69
2022/09/21 10:46:40;;;;;;;5.78;1.30;;;;;;;;;;5006605;28;20587;-69
2022/09/21 10:49:10;;;;;;;6.55;1.15;;;;;;;;;;5006707;28;20220;-68
2022/09/21 10:51:35;;;;;;;5.40;1.38;;;;;;;;;;5014180;28;20215;-69
2022/09/21 10:54:01;;;;;;;4.20;1.15;;;;;;;;;;5020930;28;20213;-69
2022/09/21 10:56:26;;;;;;;5.30;0.90;;;;;;;;;;5009506;28;20215;-69
2022/09/21 10:59:09;;;;;;;3.05;0.98;;;;;;;;;;5027366;28;20244;-69
2022/09/21 11:01:34;;;;;;;7.68;1.08;;;;;;;;;;5023172;28;20216;-69
2022/09/21 11:04:02;;;;;;;4.03;0.80;;;;;;;;;;5023108;28;20200;-69
2022/09/21 11:06:29;;;;;;;7.88;1.23;;;;;;;;;;5025405;28;20244;-69
2022/09/21 11:08:56;;;;;;;4.05;0.75;;;;;;;;;;5025910;28;20852;-69
2022/09/21 11:11:31;;;;;;;3.15;0.80;;;;;;;;;;5026383;28;20200;-69
2022/09/21 11:13:59;;;;;;;6.18;1.10;;;;;;;;;;5027215;28;20235;-69
2022/09/21 11:16:27;;;;;;;7.72;1.20;;;;;;;;;;5025415;28;20212;-71
2022/09/21 11:19:01;;;;;;;4.35;0.73;;;;;;;;;;5021827;28;20227;-64
2022/09/21 11:21:33;;;;;;;5.15;1.02;;;;;;;;;;5022066;28;20212;-63
2022/09/21 11:24:02;;;;;;;3.75;0.93;;;;;;;;;;5029046;28;20226;-63
2022/09/21 11:26:28;;;;;;;5.43;0.93;;;;;;;;;;5030229;28;20246;-64
2022/09/21 11:29:01;;;;;;;4.20;0.75;;;;;;;;;;5032338;28;20231;-65
2022/09/21 11:31:27;;;;;;;4.22;0.70;;;;;;;;;;5018001;28;20204;-66
2022/09/21 11:34:04;;;;;;;2.88;0.60;;;;;;;;;;5019891;28;20212;-66
2022/09/21 11:36:35;;;;;;;2.42;0.60;;;;;;;;;;5027007;28;20218;-66
2022/09/21 11:39:02;;;;;;;4.78;0.75;;;;;;;;;;5024436;28;20686;-65
2022/09/21 11:41:30;;;;;;;3.53;0.63;;;;;;;;;;5025862;28;20235;-66
2022/09/21 11:44:25;;;;;;;3.38;0.50;;;;;;;;;;5026710;28;20231;-66
2022/09/21 11:46:50;;;;;;;4.57;0.75;;;;;;;;;;5025534;28;20709;-66
2022/09/21 11:49:27;;;;;;;3.30;0.70;;;;;;;;;;5003435;28;20319;-65
2022/09/21 11:52:01;;;;;;;3.60;0.98;;;;;;;;;;5006072;28;20519;-61
2022/09/21 11:54:34;;;;;;;5.40;0.75;;;;;;;;;;5018226;28;20679;-71
2022/09/21 11:57:03;;;;;;;2.58;0.60;;;;;;;;;;5004163;28;20316;-66
2022/09/21 11:59:37;;;;;;;3.70;0.68;;;;;;;;;;5014120;28;20215;-64
2022/09/21 12:02:26;;;;;;;5.07;0.70;;;;;;;;;;4994947;28;20205;-67
2022/09/21 12:04:54;;;;;;;3.00;0.70;;;;;;;;;;5008916;28;20216;-69
2022/09/21 12:07:37;;;;;;;2.65;0.40;;;;;;;;;;5004710;28;20215;-69
2022/09/21 12:10:08;;;;;;;6.38;0.70;;;;;;;;;;5021142;28;20667;-67
2022/09/21 12:12:37;;;;;;;3.85;0.63;;;;;;;;;;5005171;28;20331;-68
2022/09/21 12:15:21;;;;;;;2.30;0.47;;;;;;;;;;5004179;28;20208;-67
2022/09/21 12:17:55;;;;;;;4.78;0.60;;;;;;;;;;5006780;28;20798;-72
2022/09/21 12:20:28;;;;;;;3.78;0.65;;;;;;;;;;4984460;28;20630;-67
2022/09/21 12:22:58;;;;;;;2.72;0.63;;;;;;;;;;4992429;28;20236;-69
2022/09/21 12:25:25;;;;;;;2.05;0.60;;;;;;;;;;5012680;28;20351;-68
2022/09/21 12:27:57;;;;;;;4.03;0.82;;;;;;;;;;5015269;28;20232;-68
2022/09/21 12:30:23;;;;;;;3.92;0.50;;;;;;;;;;5019386;28;20227;-69
2022/09/21 12:32:52;;;;;;;4.00;0.85;;;;;;;;;;5005342;28;20299;-69
2022/09/21 12:35:22;;;;;;;3.55;0.60;;;;;;;;;;5018624;28;20212;-68
2022/09/21 12:37:49;;;;;;;4.03;0.60;;;;;;;;;;5005633;28;20312;-69
2022/09/21 12:40:14;;;;;;;3.58;0.60;;;;;;;;;;5020739;28;20212;-69
2022/09/21 12:42:41;;;;;;;1.70;0.43;;;;;;;;;;5003067;28;20270;-69
2022/09/21 12:45:13;;;;;;;2.58;0.50;;;;;;;;;;4997867;28;20231;-69
2022/09/21 12:47:48;;;;;;;3.75;0.70;;;;;;;;;;4997592;28;20477;-68
2022/09/21 12:50:26;;;;;;;3.72;0.60;;;;;;;;;;4998935;28;20326;-69
2022/09/21 12:52:52;;;;;;;4.65;0.52;;;;;;;;;;5019669;28;20212;-68
2022/09/21 12:55:32;;;;;;;3.78;0.50;;;;;;;;;;5019927;28;20270;-68
2022/09/21 12:57:58;;;;;;;4.30;1.10;;;;;;;;;;5019172;28;20215;-66
2022/09/21 13:00:24;;;;;;;2.30;0.50;;;;;;;;;;5003863;28;20221;-65
2022/09/21 13:02:55;;;;;;;3.40;0.50;;;;;;;;;;5019146;28;20714;-65
2022/09/21 13:05:27;;;;;;;2.25;0.40;;;;;;;;;;5005053;28;20220;-66
2022/09/21 13:08:00;;;;;;;4.78;0.50;;;;;;;;;;4998422;28;20240;-65
2022/09/21 13:10:26;;;;;;;3.00;0.57;;;;;;;;;;5011714;28;20443;-65
2022/09/21 13:12:53;;;;;;;2.25;0.60;;;;;;;;;;4998942;28;20765;-65
2022/09/21 13:15:20;;;;;;;5.50;0.60;;;;;;;;;;5018950;28;20295;-65
2022/09/21 13:17:46;;;;;;;2.10;0.50;;;;;;;;;;5004051;28;20706;-65
2022/09/21 13:20:15;;;;;;;2.42;0.60;;;;;;;;;;5017627;28;20327;-65
2022/09/21 13:22:41;;;;;;;3.70;0.73;;;;;;;;;;5004910;28;20274;-66
2022/09/21 13:25:14;;;;;;;2.30;0.40;;;;;;;;;;5003618;28;20216;-65
2022/09/21 13:27:58;;;;;;;2.67;0.52;;;;;;;;;;5018983;28;20630;-65
2022/09/21 13:30:36;;;;;;;2.45;0.60;;;;;;;;;;4997722;28;20216;-65
2022/09/21 13:33:02;;;;;;;2.97;0.52;;;;;;;;;;4996579;28;20251;-65
2022/09/21 13:35:47;;;;;;;2.47;0.40;;;;;;;;;;4999096;28;20576;-66
2022/09/21 13:38:29;;;;;;;2.80;0.50;;;;;;;;;;5010869;28;20212;-65
2022/09/21 13:40:57;;;;;;;2.30;0.43;;;;;;;;;;5004035;28;20711;-66
2022/09/21 13:43:23;;;;;;;2.42;0.50;;;;;;;;;;5003678;28;20220;-66
2022/09/21 13:45:49;;;;;;;1.88;0.40;;;;;;;;;;5002660;28;20216;-65
2022/09/21 13:48:24;;;;;;;4.50;0.60;;;;;;;;;;5018498;28;20263;-66
2022/09/21 13:50:50;;;;;;;3.15;0.50;;;;;;;;;;5018569;28;20221;-65
2022/09/21 13:53:19;;;;;;;2.55;0.55;;;;;;;;;;4996137;28;20217;-64
2022/09/21 13:55:48;;;;;;;4.43;0.63;;;;;;;;;;5012886;28;20520;-63
2022/09/21 13:58:22;;;;;;;3.95;0.65;;;;;;;;;;5000635;28;20577;-64
2022/09/21 14:00:48;;;;;;;3.13;0.70;;;;;;;;;;5017512;28;20204;-63
2022/09/21 14:03:17;;;;;;;2.30;0.50;;;;;;;;;;5003552;28;20661;-63
2022/09/21 14:05:43;;;;;;;2.17;0.40;;;;;;;;;;5004722;28;20287;-63
2022/09/21 14:08:15;;;;;;;2.15;0.50;;;;;;;;;;5002938;28;20295;-64
2022/09/21 14:10:47;;;;;;;2.30;0.43;;;;;;;;;;5003557;28;20562;-63
2022/09/21 14:13:35;;;;;;;4.32;0.70;;;;;;;;;;5004082;28;20355;-63
2022/09/21 14:16:19;;;;;;;1.30;0.30;;;;;;;;;;4997213;28;20240;-64
2022/09/21 14:18:45;;;;;;;3.50;0.60;;;;;;;;;;4996406;28;20690;-63
2022/09/21 14:21:18;;;;;;;4.82;0.50;;;;;;;;;;4996067;28;20450;-63
2022/09/21 14:24:03;;;;;;;2.42;0.43;;;;;;;;;;5013247;28;20211;-63
2022/09/21 14:26:34;;;;;;;2.15;0.50;;;;;;;;;;5002857;28;20223;-63
2022/09/21 14:29:04;;;;;;;2.72;0.88;;;;;;;;;;5001996;28;20782;-63
2022/09/21 14:31:31;;;;;;;1.13;0.40;;;;;;;;;;5013054;28;20251;-63
2022/09/21 14:33:58;;;;;;;2.85;0.45;;;;;;;;;;5002518;28;20212;-63
2022/09/21 14:36:29;;;;;;;2.50;0.50;;;;;;;;;;5002358;28;20270;-63
2022/09/21 14:38:59;;;;;;;1.45;0.30;;;;;;;;;;5010514;28;20714;-62
2022/09/21 14:41:26;;;;;;;2.35;0.52;;;;;;;;;;4994814;28;20222;-63
2022/09/21 14:43:52;;;;;;;2.25;0.50;;;;;;;;;;5012171;28;20918;-70
2022/09/21 14:46:39;;;;;;;2.58;0.52;;;;;;;;;;5002070;28;20251;-71
2022/09/21 14:49:11;;;;;;;2.38;0.60;;;;;;;;;;5015777;28;20231;-72
2022/09/21 14:51:37;;;;;;;2.65;0.47;;;;;;;;;;5018385;28;20411;-72
2022/09/21 14:54:08;;;;;;;3.42;0.85;;;;;;;;;;5003226;28;20220;-69